Time;durP1;ratioP1;P1;durP2;ratioP2;P2;SDS_P1;SDS_P2;PMS_P1;PMS_P2;Temp;Humidity;BMP_temperature;BMP_pressure;BME280_temperature;BME280_humidity;BME280_pressure;Samples;Min_cycle;Max_cycle;Signal;HPM_P1;HPM_P2
2022/09/20 00:01:06;;;;;;;11.98;6.07;;;;;;;11.00;100.00;102207.81;5009407;28;20030;-86
2022/09/20 00:03:34;;;;;;;13.07;6.50;;;;;;;10.95;100.00;102204.59;5014822;28;20029;-86
2022/09/20 00:06:01;;;;;;;10.18;6.03;;;;;;;10.96;100.00;102198.41;4992060;28;20026;-85
2022/09/20 00:08:27;;;;;;;13.05;6.68;;;;;;;10.89;100.00;102203.16;5025423;28;20226;-86
2022/09/20 00:11:05;;;;;;;14.10;5.65;;;;;;;10.92;100.00;102202.13;5029698;28;20112;-85
2022/09/20 00:13:30;;;;;;;11.48;6.30;;;;;;;10.93;100.00;102198.56;5011478;28;20037;-85
2022/09/20 00:15:56;;;;;;;14.38;6.47;;;;;;;10.90;100.00;102193.47;5028415;28;20044;-84
2022/09/20 00:18:22;;;;;;;12.02;6.43;;;;;;;10.95;100.00;102201.97;5011372;28;20033;-85
2022/09/20 00:20:49;;;;;;;13.10;6.68;;;;;;;10.93;100.00;102193.28;5025328;28;20033;-86
2022/09/20 00:23:15;;;;;;;14.40;6.45;;;;;;;10.94;100.00;102189.72;5008414;28;20030;-86
2022/09/20 00:25:41;;;;;;;15.57;6.70;;;;;;;10.92;100.00;102194.22;5010101;28;20032;-87
2022/09/20 00:28:07;;;;;;;11.35;6.05;;;;;;;10.88;100.00;102195.31;4992051;28;20069;-86
2022/09/20 00:30:33;;;;;;;13.25;6.40;;;;;;;10.88;100.00;102195.31;5007863;28;20037;-86
2022/09/20 00:33:00;;;;;;;11.77;6.43;;;;;;;10.89;100.00;102191.75;5009945;28;20459;-86
2022/09/20 00:35:26;;;;;;;11.05;6.15;;;;;;;10.85;100.00;102196.34;5007986;28;20120;-86
2022/09/20 00:37:51;;;;;;;9.80;5.97;;;;;;;10.87;100.00;102196.25;5004199;28;20444;-86
2022/09/20 00:40:19;;;;;;;13.52;6.65;;;;;;;10.88;100.00;102200.59;5007983;28;20029;-86
2022/09/20 00:42:45;;;;;;;10.30;5.97;;;;;;;10.84;100.00;102204.31;5008168;28;20639;-84
2022/09/20 00:45:25;;;;;;;12.68;6.30;;;;;;;10.84;100.00;102205.19;5028956;28;20035;-88
2022/09/20 00:47:58;;;;;;;12.43;5.97;;;;;;;10.77;100.00;102197.66;5029219;28;20091;-85
2022/09/20 00:50:31;;;;;;;12.13;6.18;;;;;;;10.72;100.00;102200.53;5028709;28;20037;-86
2022/09/20 00:53:04;;;;;;;11.48;6.20;;;;;;;10.69;100.00;102205.97;5028198;28;20390;-86
2022/09/20 00:55:32;;;;;;;13.10;6.22;;;;;;;10.68;100.00;102196.38;5029128;28;20033;-86
2022/09/20 00:57:58;;;;;;;10.25;5.78;;;;;;;10.66;100.00;102200.88;5010613;28;20444;-86
2022/09/20 01:00:25;;;;;;;14.00;6.03;;;;;;;10.62;100.00;102204.59;5027272;28;20079;-86
2022/09/20 01:02:55;;;;;;;12.80;5.72;;;;;;;10.59;100.00;102195.06;5028923;28;20039;-86
2022/09/20 01:05:21;;;;;;;11.07;5.57;;;;;;;10.61;100.00;102195.00;5027461;28;20100;-85
2022/09/20 01:07:49;;;;;;;10.40;5.60;;;;;;;10.57;100.00;102203.97;5027948;28;20113;-86
2022/09/20 01:10:14;;;;;;;14.80;5.93;;;;;;;10.47;100.00;102194.88;5027833;28;20029;-86
2022/09/20 01:12:42;;;;;;;15.35;5.80;;;;;;;10.49;100.00;102193.88;5027886;28;20390;-86
2022/09/20 01:15:09;;;;;;;10.63;5.75;;;;;;;10.44;100.00;102195.03;5028353;28;20041;-86
2022/09/20 01:17:40;;;;;;;11.15;5.82;;;;;;;10.43;100.00;102196.81;5028639;28;20125;-86
2022/09/20 01:20:11;;;;;;;12.07;5.82;;;;;;;10.38;100.00;102190.91;5020536;28;20022;-85
2022/09/20 01:23:10;;;;;;;10.52;5.97;;;;;;;10.42;100.00;102197.75;5009127;28;20037;-86
2022/09/20 01:25:48;;;;;;;12.38;5.50;;;;;;;10.43;100.00;102182.81;4991206;28;20025;-87
2022/09/20 01:28:15;;;;;;;14.45;5.15;;;;;;;10.44;100.00;102188.00;4991137;28;20049;-86
2022/09/20 01:30:56;;;;;;;12.15;5.85;;;;;;;10.49;100.00;102190.38;4992538;28;20026;-86
2022/09/20 01:33:21;;;;;;;10.00;5.47;;;;;;;10.46;100.00;102188.75;5047980;28;20501;-85
2022/09/20 01:35:50;;;;;;;11.00;5.80;;;;;;;10.44;100.00;102195.88;5040009;28;20104;-86
2022/09/20 01:38:47;;;;;;;10.50;5.60;;;;;;;10.53;100.00;102195.41;5028222;28;20030;-86
2022/09/20 01:41:42;;;;;;;11.00;5.47;;;;;;;10.53;100.00;102195.41;5013956;28;20018;-86
2022/09/20 01:44:26;;;;;;;11.40;5.68;;;;;;;10.52;100.00;102193.69;5014614;28;20025;-85
2022/09/20 01:47:22;;;;;;;12.73;5.55;;;;;;;10.53;100.00;102190.13;5031678;28;20036;-86
2022/09/20 01:49:58;;;;;;;11.68;5.70;;;;;;;10.53;100.00;102205.06;4991041;28;20440;-86
2022/09/20 01:52:51;;;;;;;11.70;5.43;;;;;;;10.57;100.00;102206.63;5014036;28;20033;-86
2022/09/20 01:55:35;;;;;;;12.93;5.60;;;;;;;10.59;100.00;102202.13;5021105;28;20033;-86
2022/09/20 01:58:19;;;;;;;12.10;5.70;;;;;;;10.60;100.00;102196.78;5031831;28;20026;-85
2022/09/20 02:00:56;;;;;;;12.70;5.75;;;;;;;10.62;100.00;102199.31;5013471;28;20058;-86
2022/09/20 02:03:33;;;;;;;13.13;5.57;;;;;;;10.61;100.00;102202.91;5014098;28;20044;-86
2022/09/20 02:06:33;;;;;;;10.70;5.35;;;;;;;10.64;100.00;102198.31;5013697;28;20029;-85
2022/09/20 02:09:06;;;;;;;12.27;5.68;;;;;;;10.64;100.00;102193.06;5029796;28;20451;-85
2022/09/20 02:11:49;;;;;;;11.85;5.30;;;;;;;10.67;100.00;102189.41;5019657;28;20436;-86
2022/09/20 02:14:36;;;;;;;9.95;5.30;;;;;;;10.66;100.00;102196.44;5030405;28;20471;-85
2022/09/20 02:17:28;;;;;;;12.00;5.60;;;;;;;10.64;100.00;102198.31;5030055;28;20043;-86
2022/09/20 02:20:05;;;;;;;9.23;5.93;;;;;;;10.66;100.00;102201.72;4990733;28;20342;-85
2022/09/20 02:22:48;;;;;;;15.95;5.80;;;;;;;10.67;100.00;102200.78;5030715;28;20048;-85
2022/09/20 02:25:28;;;;;;;11.63;5.40;;;;;;;10.64;100.00;102198.31;5031169;28;20112;-85
2022/09/20 02:28:15;;;;;;;15.05;5.90;;;;;;;10.66;100.00;102199.09;5013841;28;20296;-85
2022/09/20 02:31:02;;;;;;;14.75;5.65;;;;;;;10.67;100.00;102192.03;5031702;28;20053;-86
2022/09/20 02:33:54;;;;;;;13.27;6.07;;;;;;;10.67;100.00;102192.88;5030253;28;20462;-85
2022/09/20 02:36:53;;;;;;;11.20;5.10;;;;;;;10.72;100.00;102190.00;5019219;28;20041;-85
2022/09/20 02:39:34;;;;;;;14.40;6.30;;;;;;;10.67;100.00;102192.88;5022738;28;20537;-85
2022/09/20 02:42:20;;;;;;;14.35;5.50;;;;;;;10.70;100.00;102191.03;5013022;28;20479;-86
2022/09/20 02:45:24;;;;;;;13.95;5.70;;;;;;;10.69;100.00;102190.19;5031465;28;20039;-85
2022/09/20 02:47:55;;;;;;;14.88;6.05;;;;;;;10.65;100.00;102197.38;5031181;28;20033;-85
2022/09/20 02:50:23;;;;;;;11.45;6.05;;;;;;;10.68;100.00;102201.63;5012069;28;20478;-85
2022/09/20 02:53:33;;;;;;;10.43;5.50;;;;;;;10.72;100.00;102199.69;5013642;28;20037;-85
2022/09/20 02:56:28;;;;;;;16.02;6.25;;;;;;;10.77;100.00;102195.03;5007099;28;20092;-86
2022/09/20 02:59:24;;;;;;;16.08;6.32;;;;;;;10.77;100.00;102197.66;5031160;28;20030;-85
2022/09/20 03:02:13;;;;;;;15.18;6.30;;;;;;;10.76;100.00;102190.69;5030965;28;20076;-85
2022/09/20 03:05:17;;;;;;;14.52;6.35;;;;;;;10.78;100.00;102183.56;5042813;28;20017;-85
2022/09/20 03:07:57;;;;;;;16.08;6.30;;;;;;;10.76;100.00;102180.16;5033073;28;20369;-85
2022/09/20 03:10:28;;;;;;;9.27;5.85;;;;;;;10.78;100.00;102175.66;5011623;28;20481;-85
2022/09/20 03:13:12;;;;;;;9.32;5.88;;;;;;;10.80;100.00;102181.69;5012776;28;20029;-84
2022/09/20 03:15:56;;;;;;;16.80;6.88;;;;;;;10.75;100.00;102181.09;5012684;28;20046;-84
2022/09/20 03:18:45;;;;;;;13.27;6.20;;;;;;;10.80;100.00;102193.06;5011666;28;20120;-86
2022/09/20 03:21:17;;;;;;;14.57;6.55;;;;;;;10.76;100.00;102194.19;5012781;28;20885;-85
2022/09/20 03:24:35;;;;;;;12.57;6.50;;;;;;;10.81;100.00;102199.22;4994122;28;20498;-85
2022/09/20 03:27:23;;;;;;;11.25;6.40;;;;;;;10.79;100.00;102190.53;5017039;28;20178;-85
2022/09/20 03:30:14;;;;;;;12.23;6.20;;;;;;;10.81;100.00;102194.81;5013012;28;20025;-84
2022/09/20 03:33:14;;;;;;;13.55;6.18;;;;;;;10.82;100.00;102195.66;5029594;28;20029;-85
2022/09/20 03:36:03;;;;;;;15.45;7.35;;;;;;;10.83;100.00;102197.34;5029375;28;20021;-84
2022/09/20 03:39:01;;;;;;;11.32;6.90;;;;;;;10.86;100.00;102194.56;5029514;28;20355;-84
2022/09/20 03:41:32;;;;;;;13.30;7.13;;;;;;;10.82;100.00;102196.50;5027565;28;20029;-84
2022/09/20 03:44:09;;;;;;;12.15;7.18;;;;;;;10.82;100.00;102191.25;5025570;28;20454;-84
2022/09/20 03:46:46;;;;;;;12.27;7.43;;;;;;;10.86;100.00;102202.47;5029586;28;20030;-85
2022/09/20 03:49:30;;;;;;;12.02;7.05;;;;;;;10.87;100.00;102201.53;5012231;28;20022;-84
2022/09/20 03:52:13;;;;;;;10.10;6.88;;;;;;;10.89;100.00;102202.28;5030268;28;20029;-84
2022/09/20 03:55:02;;;;;;;12.93;7.10;;;;;;;10.93;100.00;102194.16;5029761;28;20036;-86
2022/09/20 03:57:41;;;;;;;13.18;7.45;;;;;;;10.93;100.00;102201.19;5012085;28;20025;-85
2022/09/20 04:00:22;;;;;;;15.80;7.53;;;;;;;10.90;100.00;102202.22;5008920;28;20098;-86
2022/09/20 04:03:16;;;;;;;12.07;7.18;;;;;;;10.93;100.00;102188.03;4991578;28;20092;-84
2022/09/20 04:05:49;;;;;;;14.18;7.63;;;;;;;10.93;100.00;102185.41;5010064;28;20565;-84
2022/09/20 04:08:28;;;;;;;13.27;7.95;;;;;;;10.90;100.00;102196.09;5009079;28;20033;-85
2022/09/20 04:11:08;;;;;;;16.00;7.80;;;;;;;10.94;100.00;102200.25;5002539;28;20047;-84
2022/09/20 04:13:37;;;;;;;13.27;7.43;;;;;;;10.91;100.00;102201.28;5028558;28;20484;-84
2022/09/20 04:16:18;;;;;;;12.48;7.38;;;;;;;10.95;100.00;102187.00;5017781;28;20046;-84
2022/09/20 04:18:51;;;;;;;15.75;7.85;;;;;;;10.95;100.00;102179.09;5029163;28;20032;-84
2022/09/20 04:21:42;;;;;;;10.13;7.43;;;;;;;10.99;100.00;102166.63;5026348;28;20025;-84
2022/09/20 04:24:35;;;;;;;15.73;7.13;;;;;;;10.98;100.00;102170.19;5029412;28;20047;-84
2022/09/20 04:27:30;;;;;;;12.88;6.93;;;;;;;10.99;100.00;102182.44;5011512;28;20117;-84
2022/09/20 04:30:28;;;;;;;11.88;6.70;;;;;;;10.99;100.00;102183.28;4977800;28;20041;-84
2022/09/20 04:33:12;;;;;;;13.35;7.35;;;;;;;10.94;100.00;102185.31;5010217;28;20033;-84
2022/09/20 04:36:29;;;;;;;12.07;6.97;;;;;;;10.97;100.00;102173.75;5028392;28;20025;-84
2022/09/20 04:39:13;;;;;;;12.30;7.18;;;;;;;10.91;100.00;102171.47;5029275;28;20033;-84
2022/09/20 04:41:58;;;;;;;10.23;6.55;;;;;;;10.98;100.00;102175.47;5028486;28;20044;-84
2022/09/20 04:44:48;;;;;;;14.43;7.45;;;;;;;10.92;100.00;102181.91;5011470;28;20413;-84
2022/09/20 04:47:27;;;;;;;13.95;8.02;;;;;;;10.92;100.00;102181.06;5010975;28;20037;-84
2022/09/20 04:49:58;;;;;;;11.15;7.68;;;;;;;10.89;100.00;102181.22;5028562;28;20027;-84
2022/09/20 04:53:02;;;;;;;11.43;7.22;;;;;;;10.94;100.00;102189.72;5029375;28;20535;-84
2022/09/20 04:55:53;;;;;;;13.02;6.70;;;;;;;10.89;100.00;102197.03;5011787;28;20022;-85
2022/09/20 04:58:45;;;;;;;11.27;7.38;;;;;;;10.90;100.00;102198.72;5010893;28;20124;-84
2022/09/20 05:01:15;;;;;;;10.77;6.10;;;;;;;10.88;100.00;102200.59;5010661;28;20029;-84
2022/09/20 05:03:58;;;;;;;9.05;6.53;;;;;;;10.82;100.00;102200.94;5028378;28;20017;-84
2022/09/20 05:06:57;;;;;;;9.52;6.07;;;;;;;10.85;100.00;102196.34;5028965;28;20034;-84
2022/09/20 05:09:50;;;;;;;10.23;6.82;;;;;;;10.86;100.00;102198.03;5016730;28;20042;-84
2022/09/20 05:12:40;;;;;;;8.73;6.35;;;;;;;10.83;100.00;102205.25;5029752;28;20095;-85
2022/09/20 05:15:22;;;;;;;10.23;6.35;;;;;;;10.77;100.00;102202.91;5014508;28;20049;-84
2022/09/20 05:18:02;;;;;;;10.25;6.07;;;;;;;10.77;100.00;102202.91;5032141;28;20068;-85
2022/09/20 05:20:42;;;;;;;10.20;6.28;;;;;;;10.81;100.00;102209.75;5031363;28;20079;-85
2022/09/20 05:23:11;;;;;;;12.82;6.43;;;;;;;10.75;100.00;102213.53;5033114;28;20497;-85
2022/09/20 05:25:45;;;;;;;9.90;6.43;;;;;;;10.79;100.00;102216.84;5014182;28;20060;-85
2022/09/20 05:28:28;;;;;;;8.80;5.95;;;;;;;10.74;100.00;102214.47;5032369;28;20141;-85
2022/09/20 05:31:15;;;;;;;7.47;5.95;;;;;;;10.77;100.00;102216.09;5031305;28;20120;-85
2022/09/20 05:34:14;;;;;;;10.43;6.68;;;;;;;10.73;100.00;102217.19;5012679;28;20029;-86
2022/09/20 05:36:41;;;;;;;8.98;5.95;;;;;;;10.62;100.00;102221.25;5033008;28;20053;-86
2022/09/20 05:39:27;;;;;;;10.88;5.97;;;;;;;10.66;100.00;102230.66;5032061;28;20029;-85
2022/09/20 05:42:03;;;;;;;12.48;6.80;;;;;;;10.72;100.00;102233.91;5031579;28;20049;-85
2022/09/20 05:44:50;;;;;;;12.43;6.57;;;;;;;10.72;100.00;102236.53;5032897;28;20072;-85
2022/09/20 05:47:49;;;;;;;12.10;6.47;;;;;;;10.76;100.00;102235.44;5030553;28;20025;-86
2022/09/20 05:50:52;;;;;;;12.18;6.22;;;;;;;10.74;100.00;102234.69;4991346;28;20511;-85
2022/09/20 05:53:46;;;;;;;9.65;6.30;;;;;;;10.75;100.00;102231.97;5011944;28;20025;-85
2022/09/20 05:56:45;;;;;;;9.90;6.43;;;;;;;10.82;100.00;102243.06;5012542;28;20026;-86
2022/09/20 05:59:29;;;;;;;10.82;6.40;;;;;;;10.80;100.00;102239.63;4998335;28;20042;-86
2022/09/20 06:02:08;;;;;;;11.55;6.43;;;;;;;10.81;100.00;102247.47;5008766;28;20489;-86
2022/09/20 06:04:38;;;;;;;11.70;6.55;;;;;;;10.83;100.00;102250.00;5033566;28;20032;-85
2022/09/20 06:07:14;;;;;;;11.38;6.43;;;;;;;10.84;100.00;102243.81;5024415;28;20048;-85
2022/09/20 06:09:58;;;;;;;12.98;6.75;;;;;;;10.89;100.00;102260.22;5032979;28;20036;-87
2022/09/20 06:12:52;;;;;;;13.98;6.97;;;;;;;10.94;100.00;102259.03;5031968;28;20037;-85
2022/09/20 06:15:43;;;;;;;14.63;6.65;;;;;;;10.93;100.00;102257.34;5031396;28;20110;-86
2022/09/20 06:18:32;;;;;;;14.90;6.78;;;;;;;10.90;100.00;102261.94;5032240;28;20033;-86
2022/09/20 06:21:21;;;;;;;12.15;6.10;;;;;;;10.98;100.00;102262.38;5013963;28;20032;-86
2022/09/20 06:23:47;;;;;;;10.90;6.88;;;;;;;10.98;100.00;102265.84;5030864;28;20040;-86
2022/09/20 06:26:25;;;;;;;12.70;6.57;;;;;;;10.98;100.00;102270.25;5013055;28;20054;-86
2022/09/20 06:29:03;;;;;;;10.13;6.22;;;;;;;11.03;100.00;102264.75;5016137;28;20013;-85
2022/09/20 06:31:28;;;;;;;10.45;6.72;;;;;;;11.03;100.00;102257.69;5042630;28;20618;-85
2022/09/20 06:34:07;;;;;;;11.05;6.80;;;;;;;11.03;100.00;102268.22;5043741;28;20025;-85
2022/09/20 06:42:23;;;;;;;11.55;7.22;;;;;;;11.10;100.00;102268.75;5046049;28;20060;-84
2022/09/20 06:44:48;;;;;;;11.70;7.00;;;;;;;11.14;100.00;102267.66;5046542;28;20088;-83
2022/09/20 06:47:14;;;;;;;11.85;7.43;;;;;;;11.15;100.00;102264.94;5048048;28;20067;-84
2022/09/20 06:49:41;;;;;;;11.52;7.05;;;;;;;11.22;100.00;102263.69;5031987;28;20032;-83
2022/09/20 06:52:11;;;;;;;9.05;6.72;;;;;;;11.24;100.00;102264.47;5032018;28;20029;-84
2022/09/20 06:54:37;;;;;;;10.65;6.72;;;;;;;11.28;100.00;102268.63;5050451;28;20016;-83
2022/09/20 06:57:05;;;;;;;10.60;7.43;;;;;;;11.28;100.00;102273.91;5048633;28;20085;-83
2022/09/20 06:59:31;;;;;;;11.27;7.03;;;;;;;11.35;100.00;102273.56;5050448;28;20029;-82
2022/09/20 07:01:57;;;;;;;11.95;7.15;;;;;;;11.35;100.00;102270.94;5047996;28;20036;-83
2022/09/20 07:04:23;;;;;;;10.15;7.15;;;;;;;11.40;100.00;102267.09;5030830;28;20025;-83
2022/09/20 07:06:49;;;;;;;8.40;6.95;;;;;;;11.44;100.00;102270.44;5039738;28;20021;-82
2022/09/20 07:09:14;;;;;;;7.70;6.80;;;;;;;11.47;100.00;102267.63;5031260;28;20048;-83
2022/09/20 07:11:39;;;;;;;9.38;7.15;;;;;;;11.52;100.00;102265.56;5031234;28;20378;-83
2022/09/20 07:14:06;;;;;;;9.20;6.53;;;;;;;11.61;100.00;102270.38;5013419;28;20202;-85
2022/09/20 07:16:32;;;;;;;9.45;7.20;;;;;;;11.66;100.00;102263.03;5030349;28;20428;-84
2022/09/20 07:18:58;;;;;;;10.75;6.60;;;;;;;11.70;100.00;102269.00;4997134;28;20021;-84
2022/09/20 07:21:24;;;;;;;10.30;6.80;;;;;;;11.78;100.00;102262.38;5031382;28;20041;-84
2022/09/20 07:23:50;;;;;;;11.48;6.10;;;;;;;11.84;100.00;102266.47;4995609;28;20112;-83
2022/09/20 07:26:17;;;;;;;12.02;6.00;;;;;;;11.84;100.00;102267.31;5011181;28;20083;-84
2022/09/20 07:28:42;;;;;;;8.30;5.90;;;;;;;11.90;100.00;102263.47;5027075;28;20029;-84
2022/09/20 07:31:07;;;;;;;10.65;5.50;;;;;;;12.02;100.00;102259.31;5029775;28;20033;-84
2022/09/20 07:33:33;;;;;;;7.85;5.40;;;;;;;12.08;100.00;102264.22;5029451;28;20432;-84
2022/09/20 07:35:58;;;;;;;6.93;5.07;;;;;;;12.18;100.00;102260.09;5012349;28;20021;-84
2022/09/20 07:38:24;;;;;;;7.95;5.15;;;;;;;12.27;100.00;102262.19;5028682;28;20432;-84
2022/09/20 07:41:01;;;;;;;8.23;4.68;;;;;;;12.37;100.00;102276.56;5009548;28;20112;-84
2022/09/20 07:43:27;;;;;;;9.85;4.68;;;;;;;12.46;100.00;102275.19;5012888;28;20424;-85
2022/09/20 07:45:54;;;;;;;9.10;5.10;;;;;;;12.55;100.00;102270.22;5030081;28;20083;-85
2022/09/20 07:48:24;;;;;;;7.03;4.72;;;;;;;12.63;99.70;102280.31;5029908;28;20017;-82
2022/09/20 07:50:56;;;;;;;7.38;4.70;;;;;;;12.69;99.11;102281.72;5029085;28;20032;-84
2022/09/20 07:53:22;;;;;;;9.18;4.25;;;;;;;12.69;98.37;102277.28;5028685;28;20026;-84
2022/09/20 07:56:02;;;;;;;7.95;4.28;;;;;;;12.74;98.66;102284.94;5029705;28;20517;-84
2022/09/20 07:58:29;;;;;;;8.57;4.20;;;;;;;12.82;98.37;102288.00;5012501;28;20033;-86
2022/09/20 08:00:57;;;;;;;8.75;4.70;;;;;;;12.83;97.21;102287.06;5011383;28;20025;-84
2022/09/20 08:03:23;;;;;;;6.80;4.20;;;;;;;12.94;96.83;102296.97;5012250;28;20118;-85
2022/09/20 08:05:49;;;;;;;8.50;4.10;;;;;;;12.86;95.06;102286.88;5030083;28;20022;-85
2022/09/20 08:08:16;;;;;;;7.93;3.53;;;;;;;12.80;95.87;102295.13;5029681;28;20450;-85
2022/09/20 08:10:43;;;;;;;8.93;3.88;;;;;;;12.90;95.28;102296.28;5029994;28;20108;-85
2022/09/20 08:13:12;;;;;;;10.10;4.25;;;;;;;13.15;95.45;102301.75;5028833;28;20132;-85
2022/09/20 08:15:38;;;;;;;8.38;3.83;;;;;;;13.37;93.51;102303.13;5029639;28;20493;-85
2022/09/20 08:18:06;;;;;;;7.80;3.75;;;;;;;13.56;92.53;102289.59;5028668;28;20464;-85
2022/09/20 08:20:35;;;;;;;10.85;4.03;;;;;;;13.82;90.52;102296.72;5022423;28;20462;-84
2022/09/20 08:23:02;;;;;;;7.45;3.38;;;;;;;13.95;89.95;102292.31;5010160;28;20041;-84
2022/09/20 08:25:28;;;;;;;7.97;3.30;;;;;;;14.06;88.12;102310.16;5011438;28;20075;-85
2022/09/20 08:27:54;;;;;;;7.53;3.42;;;;;;;14.02;88.55;102303.38;5028051;28;20350;-85
2022/09/20 08:30:20;;;;;;;7.53;3.60;;;;;;;13.96;88.43;102304.59;5009851;28;20030;-85
2022/09/20 08:32:45;;;;;;;9.40;3.40;;;;;;;13.94;87.68;102303.00;5011917;28;20101;-85
2022/09/20 08:35:12;;;;;;;11.20;3.22;;;;;;;14.17;85.84;102302.38;5004014;28;20053;-85
2022/09/20 08:37:38;;;;;;;11.25;3.00;;;;;;;14.47;84.30;102298.69;5019184;28;20022;-85
2022/09/20 08:40:03;;;;;;;9.40;2.95;;;;;;;14.78;82.81;102302.72;5011596;28;20022;-85
2022/09/20 08:42:33;;;;;;;6.68;2.10;;;;;;;15.07;82.01;102306.03;5028352;28;20909;-80
2022/09/20 08:45:04;;;;;;;5.80;2.20;;;;;;;15.44;79.79;102310.44;5029466;28;20025;-80
2022/09/20 08:47:41;;;;;;;9.13;5.60;;;;;;;15.57;77.69;102308.59;5028904;28;20302;-80
2022/09/20 08:50:14;;;;;;;6.80;1.90;;;;;;;15.66;77.03;102318.59;5011541;28;20036;-84
2022/09/20 08:52:44;;;;;;;6.18;1.40;;;;;;;15.86;74.10;102306.53;5011548;28;20087;-82
2022/09/20 08:55:18;;;;;;;7.32;1.95;;;;;;;16.02;73.61;102308.09;5011510;28;20029;-81
2022/09/20 08:57:53;;;;;;;6.95;1.75;;;;;;;16.20;73.64;102314.69;5029320;28;20028;-82
2022/09/20 09:00:21;;;;;;;11.50;1.90;;;;;;;16.32;71.64;102310.25;5011549;28;20025;-82
2022/09/20 09:02:50;;;;;;;7.53;1.50;;;;;;;16.41;71.22;102310.44;5029454;28;20034;-81
2022/09/20 09:05:30;;;;;;;7.85;1.48;;;;;;;16.53;70.45;102308.66;5029380;28;20055;-82
2022/09/20 09:07:59;;;;;;;5.47;1.40;;;;;;;16.75;68.16;102303.41;5029207;28;20536;-82
2022/09/20 09:10:27;;;;;;;5.07;1.27;;;;;;;16.65;67.90;102306.88;5010902;28;20042;-84
2022/09/20 09:12:53;;;;;;;6.80;1.30;;;;;;;16.75;65.47;102306.06;5029415;28;20026;-84
2022/09/20 09:15:31;;;;;;;7.13;1.50;;;;;;;16.96;66.62;102310.72;5011020;28;20091;-81
2022/09/20 09:17:57;;;;;;;6.40;1.33;;;;;;;16.89;66.00;102300.56;5028872;28;20434;-81
2022/09/20 09:20:23;;;;;;;8.18;1.58;;;;;;;17.16;65.73;102310.84;5011398;28;20052;-84
2022/09/20 09:23:05;;;;;;;8.52;1.50;;;;;;;17.08;66.21;102310.59;5011652;28;20029;-82
2022/09/20 09:25:36;;;;;;;8.23;1.40;;;;;;;17.40;63.05;102302.75;5014386;28;20022;-83
2022/09/20 09:28:07;;;;;;;7.30;1.40;;;;;;;17.61;64.12;102307.31;5023079;28;20083;-81
2022/09/20 09:30:38;;;;;;;4.95;1.40;;;;;;;17.27;60.10;102302.03;5028645;28;20067;-81
2022/09/20 09:33:13;;;;;;;7.95;1.40;;;;;;;17.38;62.11;102299.34;5029400;28;20029;-81
2022/09/20 09:35:39;;;;;;;8.13;1.13;;;;;;;17.14;62.45;102304.78;4999509;28;20036;-81
2022/09/20 09:38:04;;;;;;;11.23;2.08;;;;;;;17.08;61.83;102301.78;5011258;28;20108;-81
2022/09/20 09:40:31;;;;;;;9.00;1.35;;;;;;;16.80;60.76;102301.25;5011815;28;20071;-82
2022/09/20 09:42:59;;;;;;;9.27;1.45;;;;;;;16.68;63.70;102302.19;5008288;28;20021;-82
2022/09/20 09:45:38;;;;;;;8.05;1.40;;;;;;;16.59;64.10;102302.88;5027199;28;20041;-82
2022/09/20 09:48:25;;;;;;;7.82;1.48;;;;;;;16.33;65.00;102309.28;5011160;28;20362;-83
2022/09/20 09:51:10;;;;;;;7.50;1.70;;;;;;;16.17;66.92;102313.09;5029578;28;20029;-81
2022/09/20 09:53:36;;;;;;;7.82;1.42;;;;;;;16.03;64.92;102310.63;5029395;28;20025;-83
2022/09/20 09:56:10;;;;;;;5.25;1.30;;;;;;;15.84;67.82;102310.25;5029145;28;20053;-84
2022/09/20 09:58:56;;;;;;;9.02;1.40;;;;;;;15.85;70.38;102317.25;5010556;28;20060;-84
2022/09/20 10:02:06;;;;;;;7.32;1.65;;;;;;;15.77;69.77;102319.63;5032549;28;20029;-83
2022/09/20 10:04:45;;;;;;;9.93;1.95;;;;;;;15.53;69.94;102316.88;5013826;28;20030;-82
2022/09/20 10:07:35;;;;;;;5.95;1.30;;;;;;;15.40;71.16;102324.03;5013709;28;20230;-82
2022/09/20 10:10:08;;;;;;;6.57;1.50;;;;;;;15.33;70.29;102327.13;5012093;28;20066;-82
2022/09/20 10:12:53;;;;;;;9.75;1.77;;;;;;;15.30;71.38;102326.50;5028279;28;20053;-83
2022/09/20 10:15:32;;;;;;;7.63;1.40;;;;;;;15.19;71.08;102329.88;5032043;28;20053;-83
2022/09/20 10:18:07;;;;;;;8.27;1.60;;;;;;;15.10;70.58;102316.41;5027867;28;20049;-82
2022/09/20 10:20:44;;;;;;;5.95;1.25;;;;;;;14.99;70.15;102325.97;5031509;28;20029;-83
2022/09/20 10:23:27;;;;;;;6.10;1.40;;;;;;;14.97;71.37;102330.53;5027615;28;20422;-82
2022/09/20 10:25:58;;;;;;;7.03;1.42;;;;;;;14.94;70.96;102329.88;5032328;28;20425;-82
2022/09/20 10:28:49;;;;;;;7.60;1.42;;;;;;;14.78;70.61;102324.78;5012826;28;20111;-82
2022/09/20 10:31:26;;;;;;;6.82;1.50;;;;;;;14.71;71.76;102321.69;5031657;28;20030;-82
2022/09/20 10:34:07;;;;;;;6.63;1.20;;;;;;;14.53;70.89;102325.59;5031588;28;20474;-82
2022/09/20 10:36:43;;;;;;;7.55;1.40;;;;;;;14.57;72.29;102326.22;5031569;28;20029;-82
2022/09/20 10:39:32;;;;;;;7.53;1.63;;;;;;;14.67;74.28;102322.00;5013957;28;20459;-82
2022/09/20 10:45:17;;;;;;;5.82;1.30;;;;;;;14.89;75.50;102327.56;5024485;28;20075;-82
2022/09/20 10:48:17;;;;;;;11.65;2.13;;;;;;;14.94;74.82;102330.75;5011382;28;20469;-82
2022/09/20 10:50:49;;;;;;;8.85;1.67;;;;;;;15.05;72.49;102328.19;5028255;28;20038;-82
2022/09/20 10:53:26;;;;;;;5.93;1.23;;;;;;;15.14;71.92;102325.84;5030979;28;20033;-82
2022/09/20 10:55:52;;;;;;;6.05;1.35;;;;;;;15.08;70.46;102326.28;5031261;28;20025;-82
2022/09/20 10:58:38;;;;;;;8.07;1.42;;;;;;;15.32;72.19;102330.72;5013585;28;20040;-82
2022/09/20 11:01:42;;;;;;;9.30;1.55;;;;;;;15.71;71.06;102330.69;5031831;28;20040;-82
2022/09/20 11:04:52;;;;;;;5.55;1.48;;;;;;;16.01;68.00;102320.50;4980248;28;20045;-83
2022/09/20 11:07:22;;;;;;;4.90;1.20;;;;;;;16.02;67.24;102327.53;5013491;28;20504;-82
2022/09/20 11:10:04;;;;;;;6.20;1.40;;;;;;;16.09;68.03;102326.09;5031295;28;20052;-83
2022/09/20 11:12:41;;;;;;;5.97;1.35;;;;;;;16.28;67.49;102325.56;5031377;28;20037;-83
2022/09/20 11:15:59;;;;;;;4.40;1.10;;;;;;;16.53;70.08;102327.25;5030910;28;20056;-83
2022/09/20 11:18:37;;;;;;;5.60;1.52;;;;;;;16.76;64.98;102325.53;4970074;28;20029;-83
2022/09/20 11:21:10;;;;;;;7.18;1.52;;;;;;;16.99;62.03;102331.75;5006742;28;20069;-81
2022/09/20 11:23:42;;;;;;;7.72;1.27;;;;;;;17.29;64.59;102326.69;5030368;28;20026;-82
2022/09/20 11:26:18;;;;;;;8.30;1.50;;;;;;;17.58;61.24;102324.38;5012831;28;20056;-82
2022/09/20 11:28:49;;;;;;;4.63;1.15;;;;;;;17.25;59.30;102322.59;5031449;28;20071;-81
2022/09/20 11:31:23;;;;;;;6.93;1.48;;;;;;;17.05;61.41;102320.63;5030562;28;20032;-80
2022/09/20 11:33:57;;;;;;;5.70;1.23;;;;;;;16.88;60.94;102325.44;5013285;28;20024;-80
2022/09/20 11:36:38;;;;;;;10.35;1.70;;;;;;;16.79;63.06;102331.44;5009272;28;20034;-80
2022/09/20 11:39:21;;;;;;;4.97;1.20;;;;;;;16.55;63.58;102334.16;5016800;28;20026;-81
2022/09/20 11:41:50;;;;;;;4.80;1.30;;;;;;;16.26;64.13;102341.63;5013137;28;20570;-82
2022/09/20 11:44:18;;;;;;;8.15;1.40;;;;;;;15.91;64.38;102346.00;5030161;28;20441;-80
2022/09/20 11:47:09;;;;;;;4.88;1.08;;;;;;;15.71;64.27;102354.56;5031157;28;20087;-80
2022/09/20 11:49:49;;;;;;;4.75;1.30;;;;;;;15.60;65.77;102350.84;5030758;28;20029;-79
2022/09/20 11:52:56;;;;;;;6.35;1.10;;;;;;;15.53;66.66;102360.19;5029794;28;20182;-82
2022/09/20 11:55:43;;;;;;;7.00;1.30;;;;;;;15.54;65.92;102351.28;5007593;28;20034;-82
2022/09/20 11:58:14;;;;;;;6.68;1.10;;;;;;;15.56;65.01;102354.66;5015815;28;20026;-82
2022/09/20 12:00:45;;;;;;;9.38;1.30;;;;;;;15.56;64.58;102354.66;5012624;28;20116;-82
2022/09/20 12:03:22;;;;;;;4.93;1.60;;;;;;;15.60;65.30;102350.84;5029648;28;20047;-82
2022/09/20 12:05:59;;;;;;;7.57;1.35;;;;;;;15.65;67.40;102359.38;5029983;28;20264;-82
2022/09/20 12:08:47;;;;;;;5.85;1.10;;;;;;;15.54;65.54;102353.91;5012185;28;20478;-81
2022/09/20 12:11:15;;;;;;;6.60;1.20;;;;;;;15.50;65.88;102355.09;5025914;28;20498;-83
2022/09/20 12:13:51;;;;;;;9.20;3.17;;;;;;;15.48;67.12;102356.16;5029654;28;20021;-82